Time;durP1;ratioP1;P1;durP2;ratioP2;P2;SDS_P1;SDS_P2;PMS_P1;PMS_P2;Temp;Humidity;BMP_temperature;BMP_pressure;BME280_temperature;BME280_humidity;BME280_pressure;Samples;Min_cycle;Max_cycle;Signal;HPM_P1;HPM_P2
2022/05/23 12:24:27;;;;;;;34.15;5.10;;;;;;;18.71;47.41;99344.88;5153403;27;20352;-52
2022/05/23 12:26:56;;;;;;;4.78;1.70;;;;;;;18.91;48.03;99342.16;5118876;28;20053;-53
2022/05/23 12:29:33;;;;;;;5.07;2.10;;;;;;;18.95;46.67;99345.13;5132262;28;20042;-51
2022/05/23 12:32:24;;;;;;;6.50;2.15;;;;;;;19.04;46.59;99345.38;5113856;28;20023;-51
2022/05/23 12:34:56;;;;;;;42.72;7.22;;;;;;;18.86;47.13;99344.88;5118193;28;20032;-49
2022/05/23 12:37:29;;;;;;;5.30;2.05;;;;;;;18.73;47.79;99346.22;5097030;28;20031;-49
2022/05/23 12:40:12;;;;;;;6.40;2.38;;;;;;;18.65;48.82;99349.53;5132222;28;20474;-54
2022/05/23 12:43:10;;;;;;;4.78;1.23;;;;;;;18.42;48.71;99345.47;5096866;28;20032;-49
2022/05/23 12:46:05;;;;;;;6.30;1.52;;;;;;;18.18;49.72;99345.19;5117084;28;20045;-51
2022/05/23 12:48:51;;;;;;;;;;;;;;;17.94;48.75;99343.03;5101483;28;20424;-48
2022/05/23 12:51:43;;;;;;;6.82;1.77;;;;;;;17.80;48.41;99341.88;5099826;28;19914;-49
2022/05/23 12:54:37;;;;;;;4.55;1.45;;;;;;;17.79;49.42;99340.22;5117948;28;20035;-55
2022/05/23 12:57:21;;;;;;;2.28;1.50;;;;;;;17.87;48.77;99345.19;5117672;28;20111;-52
2022/05/23 13:00:27;;;;;;;4.43;1.30;;;;;;;17.87;46.68;99333.50;5113352;28;20073;-53
2022/05/23 13:03:25;;;;;;;4.35;1.42;;;;;;;17.95;43.93;99349.25;5105264;28;20044;-54
2022/05/23 13:06:00;;;;;;;2.50;0.98;;;;;;;18.01;45.07;99337.31;5101255;28;20436;-53
2022/05/23 13:08:34;;;;;;;7.25;1.73;;;;;;;18.01;44.33;99339.22;5132069;28;20049;-55
2022/05/23 13:11:05;;;;;;;4.47;1.30;;;;;;;18.07;45.48;99327.25;5132762;28;20031;-52
2022/05/23 13:13:40;;;;;;;6.30;2.00;;;;;;;18.29;44.27;99319.63;5118329;28;20253;-56
2022/05/23 13:16:28;;;;;;;6.28;1.40;;;;;;;18.45;44.31;99327.81;5111885;28;20035;-48
2022/05/23 13:22:11;;;;;;;5.65;1.33;;;;;;;18.50;44.02;99315.00;5095808;28;20032;-52
2022/05/23 13:27:22;;;;;;;6.20;1.55;;;;;;;18.71;44.36;99332.09;5048617;28;20542;-53
2022/05/23 13:30:08;;;;;;;4.25;1.20;;;;;;;18.85;45.00;99339.72;5044202;28;20047;-54
2022/05/23 13:32:35;;;;;;;8.05;1.13;;;;;;;18.94;44.90;99311.69;5078251;28;20093;-52
2022/05/23 13:35:15;;;;;;;5.57;1.40;;;;;;;19.18;44.49;99326.53;5078155;28;20025;-52
2022/05/23 13:37:49;;;;;;;5.22;1.05;;;;;;;19.28;44.65;99321.88;5059797;28;20472;-52
2022/05/23 13:40:30;;;;;;;8.60;1.10;;;;;;;19.38;43.71;99325.66;5059024;28;20175;-52
2022/05/23 13:43:24;;;;;;;3.35;0.95;;;;;;;19.44;43.02;99308.97;5077359;28;20059;-52
2022/05/23 13:46:06;;;;;;;6.78;1.95;;;;;;;19.73;42.63;99317.28;5076992;28;20037;-53
2022/05/23 13:48:55;;;;;;;4.68;1.30;;;;;;;19.85;42.71;99316.13;5077035;28;20040;-49
2022/05/23 13:51:28;;;;;;;3.72;1.10;;;;;;;19.70;42.42;99327.91;5077105;28;20038;-52
2022/05/23 13:54:10;;;;;;;2.95;1.25;;;;;;;19.54;42.50;99324.47;5059643;28;20468;-53
2022/05/23 13:56:43;;;;;;;4.85;1.30;;;;;;;19.31;43.54;99317.78;5059692;28;20460;-54
2022/05/23 13:59:15;;;;;;;5.22;1.73;;;;;;;19.01;43.54;99313.28;5077567;28;20040;-55
2022/05/23 14:01:47;;;;;;;7.97;1.55;;;;;;;18.99;44.58;99318.19;5077016;28;20028;-51
2022/05/23 14:04:16;;;;;;;4.10;1.10;;;;;;;18.82;43.92;99329.41;5058586;28;20037;-51
2022/05/23 14:07:05;;;;;;;3.25;1.05;;;;;;;18.71;44.00;99320.41;5076305;28;20039;-55
2022/05/23 14:09:34;;;;;;;5.53;1.35;;;;;;;18.58;44.04;99306.28;5061453;28;20044;-51
2022/05/23 14:12:06;;;;;;;2.63;1.10;;;;;;;18.78;42.02;99318.22;5075743;28;20035;-49
2022/05/23 14:14:37;;;;;;;4.43;0.90;;;;;;;18.84;42.21;99322.59;5076113;28;20029;-50
2022/05/23 14:17:30;;;;;;;2.50;0.80;;;;;;;19.08;42.15;99311.88;5058634;28;20031;-54
2022/05/23 14:20:30;;;;;;;1.65;0.80;;;;;;;19.42;40.81;99310.38;5044126;28;20062;-50
2022/05/23 14:23:18;;;;;;;4.03;0.93;;;;;;;19.68;40.50;99311.03;5058180;28;20383;-53
2022/05/23 14:26:00;;;;;;;2.67;1.13;;;;;;;19.90;38.94;99295.09;5077973;28;20474;-54
2022/05/23 14:28:29;;;;;;;1.13;0.60;;;;;;;20.21;37.68;99308.50;5096459;28;20428;-50
2022/05/23 14:30:59;;;;;;;3.28;0.95;;;;;;;20.35;35.07;99302.38;5096077;28;20055;-52
2022/05/23 14:33:29;;;;;;;2.28;0.80;;;;;;;20.56;36.69;99298.34;5095665;28;20023;-53
2022/05/23 14:36:19;;;;;;;0.80;0.68;;;;;;;20.88;34.54;99286.81;5094639;28;20602;-49
2022/05/23 14:39:05;;;;;;;3.50;0.68;;;;;;;20.83;34.81;99291.53;5064331;28;20035;-49
2022/05/23 14:41:34;;;;;;;3.33;0.63;;;;;;;21.06;35.80;99268.88;5095644;28;20036;-52
2022/05/23 14:44:06;;;;;;;1.27;0.50;;;;;;;21.56;35.09;99273.13;5077497;28;20089;-50
2022/05/23 14:46:35;;;;;;;0.73;0.20;;;;;;;21.87;35.33;99270.75;5095555;28;20028;-50
2022/05/23 14:49:05;;;;;;;2.10;0.68;;;;;;;22.05;33.91;99260.88;5095516;28;20028;-52
2022/05/23 14:51:34;;;;;;;3.03;0.60;;;;;;;22.32;33.97;99260.16;5044645;28;20456;-52
2022/05/23 14:57:05;;;;;;;1.65;0.60;;;;;;;22.35;35.64;99247.81;5080462;28;20089;-50
2022/05/23 15:02:28;;;;;;;3.17;0.50;;;;;;;22.77;34.91;99248.63;5080417;28;20032;-52
2022/05/23 15:04:55;;;;;;;2.05;0.50;;;;;;;22.59;34.12;99223.81;5077559;28;20464;-51
2022/05/23 15:07:22;;;;;;;9.32;2.58;;;;;;;22.96;33.57;99235.63;5061385;28;20036;-53
2022/05/23 15:09:48;;;;;;;4.53;1.02;;;;;;;22.79;34.90;99225.31;5095656;28;20051;-51
2022/05/23 15:12:20;;;;;;;1.55;0.40;;;;;;;22.70;34.53;99240.84;5095340;28;20031;-54
2022/05/23 15:14:47;;;;;;;1.77;0.38;;;;;;;22.94;35.27;99226.13;5060988;28;20039;-55
2022/05/23 15:17:16;;;;;;;0.95;0.40;;;;;;;22.90;34.58;99231.41;5078436;28;20038;-54
2022/05/23 15:19:42;;;;;;;1.60;0.40;;;;;;;22.79;35.13;99235.47;5096068;28;20038;-53
2022/05/23 15:22:17;;;;;;;2.00;0.40;;;;;;;22.67;33.38;99219.53;5090933;28;20123;-54
2022/05/23 15:24:43;;;;;;;1.42;0.47;;;;;;;22.19;33.19;99212.50;5058121;28;20060;-59
2022/05/23 15:27:11;;;;;;;3.55;0.50;;;;;;;21.95;34.19;99223.59;5057639;28;20033;-52
2022/05/23 15:29:37;;;;;;;1.85;0.60;;;;;;;21.87;34.57;99229.75;5057155;28;20078;-56
2022/05/23 15:32:04;;;;;;;2.55;0.55;;;;;;;21.59;34.85;99234.28;5074457;28;20021;-56
2022/05/23 15:34:30;;;;;;;0.80;0.50;;;;;;;21.39;35.53;99232.66;5056791;28;20411;-56
2022/05/23 15:36:56;;;;;;;2.20;0.60;;;;;;;21.15;36.75;99232.72;5056432;28;20033;-54
2022/05/23 15:39:22;;;;;;;1.42;0.68;;;;;;;21.07;35.21;99226.00;5056155;28;20472;-53
2022/05/23 15:41:52;;;;;;;3.08;0.90;;;;;;;21.10;35.78;99227.31;5074516;28;20072;-51
2022/05/23 15:44:20;;;;;;;2.20;0.65;;;;;;;21.20;36.39;99228.00;5074554;28;20028;-54
2022/05/23 15:46:48;;;;;;;1.60;0.63;;;;;;;21.27;36.38;99227.63;5074254;28;20028;-52
2022/05/23 15:49:15;;;;;;;3.25;0.88;;;;;;;21.34;35.80;99227.25;5074201;28;20033;-57
2022/05/23 15:51:42;;;;;;;1.98;1.00;;;;;;;21.36;36.63;99222.31;5074640;28;20020;-54
2022/05/23 15:54:09;;;;;;;1.15;0.60;;;;;;;21.36;36.60;99222.31;5056930;28;20033;-55
2022/05/23 15:56:36;;;;;;;2.70;0.88;;;;;;;21.48;36.93;99210.97;5074118;28;20471;-54
2022/05/23 15:59:04;;;;;;;1.17;0.52;;;;;;;21.34;35.58;99221.78;5074556;28;20599;-54
2022/05/23 16:01:30;;;;;;;3.60;1.35;;;;;;;21.10;36.39;99216.41;5057244;28;20034;-51
2022/05/23 16:03:56;;;;;;;2.70;1.02;;;;;;;20.92;37.13;99204.38;5074645;28;20103;-50
2022/05/23 16:06:22;;;;;;;3.08;0.80;;;;;;;20.72;38.05;99202.72;5056829;28;20024;-49
2022/05/23 16:08:51;;;;;;;1.90;0.73;;;;;;;20.72;38.57;99194.53;5057097;28;20032;-55
2022/05/23 16:11:25;;;;;;;1.67;0.52;;;;;;;20.99;37.72;99202.09;5057437;28;20043;-55
2022/05/23 16:13:55;;;;;;;1.95;0.75;;;;;;;21.12;36.42;99197.81;5074988;28;20491;-52
2022/05/23 16:16:23;;;;;;;1.42;0.70;;;;;;;21.11;36.22;99207.91;5074503;28;20067;-51
2022/05/23 16:18:50;;;;;;;2.50;0.60;;;;;;;21.14;36.04;99212.00;5074773;28;20060;-55
2022/05/23 16:21:17;;;;;;;0.77;0.40;;;;;;;21.03;34.97;99201.22;5057300;28;20099;-50
2022/05/23 16:23:45;;;;;;;1.38;0.50;;;;;;;21.00;36.41;99190.88;5074392;28;20477;-51
2022/05/23 16:26:11;;;;;;;2.85;0.63;;;;;;;21.13;36.14;99185.78;5056108;28;20028;-53
2022/05/23 16:28:36;;;;;;;0.55;0.40;;;;;;;20.94;35.94;99185.78;5056519;28;20153;-51
2022/05/23 16:31:04;;;;;;;2.10;0.65;;;;;;;20.71;37.24;99198.34;5056178;28;20460;-52
2022/05/23 16:39:03;;;;;;;3.72;0.77;;;;;;;20.32;36.87;99189.25;5058942;28;20075;-51
2022/05/23 16:41:29;;;;;;;2.03;0.80;;;;;;;20.22;37.56;99192.88;5074048;28;20128;-49
2022/05/23 16:43:55;;;;;;;1.38;0.50;;;;;;;20.15;37.86;99195.16;5074334;28;20056;-53
2022/05/23 16:46:21;;;;;;;2.00;0.57;;;;;;;20.08;37.14;99189.22;5074856;28;20025;-52
2022/05/23 16:48:48;;;;;;;3.38;0.95;;;;;;;19.98;37.95;99189.31;5074702;28;20025;-54
2022/05/23 16:51:14;;;;;;;0.80;0.52;;;;;;;19.84;38.41;99183.72;5057017;28;20460;-51
2022/05/23 16:53:41;;;;;;;1.98;0.63;;;;;;;19.64;38.56;99193.66;5057584;28;20031;-54
2022/05/23 16:56:07;;;;;;;5.25;0.57;;;;;;;19.49;39.24;99191.88;5075136;28;20076;-55
2022/05/23 16:58:33;;;;;;;0.85;0.63;;;;;;;19.33;39.33;99187.63;5057247;28;20115;-54
2022/05/23 17:00:59;;;;;;;3.17;0.52;;;;;;;19.28;39.39;99193.94;5063422;28;20111;-55
2022/05/23 17:03:26;;;;;;;1.02;0.45;;;;;;;19.21;39.34;99190.72;5078664;28;20086;-55
2022/05/23 17:05:53;;;;;;;1.33;0.60;;;;;;;19.17;39.18;99191.53;5079845;28;20043;-54
2022/05/23 17:08:24;;;;;;;1.40;0.50;;;;;;;19.15;39.30;99208.19;5078959;28;20062;-52
2022/05/23 17:10:50;;;;;;;1.83;0.60;;;;;;;18.99;39.44;99198.47;5079908;28;20025;-53
2022/05/23 17:13:16;;;;;;;3.13;0.50;;;;;;;18.86;40.39;99216.22;5080643;28;20024;-54
2022/05/23 17:15:44;;;;;;;1.60;0.80;;;;;;;18.63;41.08;99217.63;5079731;28;20496;-56
2022/05/23 17:18:11;;;;;;;1.80;0.60;;;;;;;18.47;42.04;99219.59;5080484;28;20119;-56
2022/05/23 17:20:39;;;;;;;2.00;0.60;;;;;;;18.27;43.19;99223.16;5080022;28;20119;-53
2022/05/23 17:23:06;;;;;;;2.00;1.20;;;;;;;18.03;46.17;99223.75;5075151;28;20048;-54
2022/05/23 17:25:32;;;;;;;4.15;0.90;;;;;;;17.77;47.30;99233.78;5098539;28;20028;-51
2022/05/23 17:27:58;;;;;;;2.47;1.05;;;;;;;17.60;50.16;99232.13;5063052;28;20498;-54
2022/05/23 17:30:24;;;;;;;2.92;1.15;;;;;;;17.24;51.52;99217.72;5098152;28;20111;-57
2022/05/23 17:32:50;;;;;;;2.75;1.25;;;;;;;17.15;52.01;99219.34;5097953;28;20031;-51
2022/05/23 17:35:17;;;;;;;4.25;1.00;;;;;;;16.99;53.85;99226.59;5097509;28;20027;-52
2022/05/23 17:37:44;;;;;;;3.05;0.80;;;;;;;16.87;53.30;99228.75;5097126;28;20439;-55
2022/05/23 17:40:15;;;;;;;2.25;0.90;;;;;;;16.77;55.03;99238.44;5097926;28;20115;-54
2022/05/23 17:42:43;;;;;;;2.40;0.82;;;;;;;16.65;55.60;99237.81;5096926;28;20028;-51
2022/05/23 17:45:09;;;;;;;2.00;0.55;;;;;;;16.57;54.83;99241.06;5097174;28;20035;-53
2022/05/23 17:47:36;;;;;;;2.35;0.68;;;;;;;16.55;55.40;99230.47;5078621;28;20062;-50
2022/05/23 17:50:02;;;;;;;4.85;0.60;;;;;;;16.36;54.19;99216.56;5097116;28;20161;-54
2022/05/23 17:52:29;;;;;;;1.70;0.85;;;;;;;16.42;54.09;99239.88;5062512;28;20048;-54
2022/05/23 17:54:56;;;;;;;3.92;0.70;;;;;;;16.34;55.03;99224.09;5096821;28;20070;-53
2022/05/23 17:57:23;;;;;;;3.55;0.80;;;;;;;16.41;55.48;99230.13;5096956;28;20024;-50
2022/05/23 17:59:51;;;;;;;2.22;0.65;;;;;;;16.39;55.64;99232.28;5097362;28;20024;-50
2022/05/23 18:02:18;;;;;;;3.00;0.70;;;;;;;16.35;55.72;99227.66;5078992;28;20024;-54
2022/05/23 18:04:45;;;;;;;2.65;0.80;;;;;;;16.36;55.73;99240.94;5078107;28;20059;-53
2022/05/23 18:07:10;;;;;;;1.88;0.80;;;;;;;16.36;55.81;99237.41;5096411;28;20523;-52
2022/05/23 18:09:36;;;;;;;1.58;0.80;;;;;;;16.32;55.71;99239.00;5045051;28;20032;-50
2022/05/23 18:12:03;;;;;;;1.77;0.90;;;;;;;16.33;55.11;99236.03;5096919;28;20043;-50
2022/05/23 18:20:00;;;;;;;1.48;0.73;;;;;;;15.97;56.42;99202.47;5082440;28;20028;-53
2022/05/23 18:22:26;;;;;;;1.60;0.80;;;;;;;16.03;55.57;99223.13;5078203;28;20047;-52
2022/05/23 18:24:52;;;;;;;3.47;0.82;;;;;;;16.19;56.54;99249.22;5096695;28;20035;-53
2022/05/23 18:27:18;;;;;;;1.83;0.80;;;;;;;16.04;56.00;99230.97;5095691;28;20028;-54
2022/05/23 18:29:44;;;;;;;2.45;1.00;;;;;;;16.04;56.04;99247.22;5095800;28;20149;-55
2022/05/23 18:32:10;;;;;;;4.93;0.90;;;;;;;16.00;55.51;99237.97;5077663;28;20483;-51
2022/05/23 18:34:37;;;;;;;3.58;1.00;;;;;;;16.05;56.12;99242.63;5095681;28;20039;-50
2022/05/23 18:37:05;;;;;;;1.52;0.90;;;;;;;16.04;56.52;99254.53;5077625;28;20483;-49
2022/05/23 18:39:32;;;;;;;2.78;1.10;;;;;;;16.05;57.02;99258.88;5078088;28;20402;-51
2022/05/23 18:41:58;;;;;;;22.08;15.75;;;;;;;16.00;56.32;99267.75;5077639;28;20035;-54
2022/05/23 18:44:25;;;;;;;22.08;15.23;;;;;;;15.90;57.01;99250.63;5095672;28;20531;-52
2022/05/23 18:46:51;;;;;;;21.15;13.27;;;;;;;15.91;56.35;99257.69;5096297;28;20407;-56
2022/05/23 18:52:03;;;;;;;5.55;3.67;;;;;;;15.75;55.29;99252.16;5080270;28;20028;-51
2022/05/23 18:54:29;;;;;;;4.47;2.40;;;;;;;15.70;54.83;99251.25;5077205;28;20069;-52
2022/05/23 18:56:55;;;;;;;1.67;0.90;;;;;;;15.66;54.41;99259.06;5060505;28;20028;-53
2022/05/23 18:59:21;;;;;;;2.13;1.00;;;;;;;15.45;54.17;99233.69;5095229;28;20028;-54
2022/05/23 19:01:48;;;;;;;4.10;0.90;;;;;;;15.56;54.35;99262.47;5095611;28;20389;-53
2022/05/23 19:04:15;;;;;;;2.25;0.80;;;;;;;15.51;54.45;99264.31;5095285;28;20452;-52
2022/05/23 19:06:41;;;;;;;1.95;0.73;;;;;;;15.42;54.73;99272.09;5060509;28;20460;-54
2022/05/23 19:09:07;;;;;;;1.35;0.50;;;;;;;15.31;55.28;99276.56;5094956;28;20106;-54
2022/05/23 19:11:33;;;;;;;1.35;0.57;;;;;;;15.19;55.25;99275.88;5077151;28;20028;-53
2022/05/23 19:14:00;;;;;;;3.70;0.70;;;;;;;15.08;55.32;99273.09;5095959;28;20024;-55
2022/05/23 19:16:26;;;;;;;0.70;0.40;;;;;;;15.06;55.27;99277.09;5061923;28;20028;-56
2022/05/23 19:18:53;;;;;;;3.35;0.45;;;;;;;14.97;55.19;99279.44;5096839;28;20087;-52
2022/05/23 19:21:19;;;;;;;5.18;0.80;;;;;;;14.89;55.26;99296.91;5096375;28;20768;-52
2022/05/23 19:23:46;;;;;;;2.92;0.60;;;;;;;14.80;55.21;99290.31;5077990;28;20539;-52
2022/05/23 19:26:14;;;;;;;0.50;0.50;;;;;;;14.79;55.74;99299.47;5097014;28;20043;-55
2022/05/23 19:28:42;;;;;;;5.90;0.60;;;;;;;14.76;55.89;99297.25;5079376;28;20027;-54
2022/05/23 19:31:09;;;;;;;1.73;0.40;;;;;;;14.69;55.76;99299.31;5096370;28;20027;-52
2022/05/23 19:33:36;;;;;;;0.47;0.30;;;;;;;14.65;55.92;99307.13;5096564;28;20379;-54
2022/05/23 19:36:04;;;;;;;0.43;0.35;;;;;;;14.63;56.02;99303.84;5081893;28;20028;-53
2022/05/23 19:38:30;;;;;;;0.85;0.38;;;;;;;14.50;56.11;99285.25;5099600;28;20032;-56
2022/05/23 19:40:56;;;;;;;4.85;0.65;;;;;;;14.61;56.40;99297.88;5099499;28;20107;-54
2022/05/23 19:43:22;;;;;;;1.95;0.57;;;;;;;14.52;56.67;99296.63;5080405;28;20514;-52
2022/05/23 19:45:48;;;;;;;0.82;0.47;;;;;;;14.58;56.89;99303.78;5096530;28;20036;-55
2022/05/23 19:48:14;;;;;;;0.73;0.30;;;;;;;14.52;55.59;99297.47;5078369;28;20091;-50
2022/05/23 19:50:41;;;;;;;1.38;0.40;;;;;;;14.53;56.18;99306.38;5077695;28;20043;-54
2022/05/23 19:53:07;;;;;;;1.23;0.50;;;;;;;14.41;55.35;99294.84;5095815;28;20019;-53
2022/05/23 19:55:33;;;;;;;1.08;0.50;;;;;;;14.46;55.53;99308.44;5096471;28;20032;-54
2022/05/23 19:57:59;;;;;;;0.30;0.30;;;;;;;14.40;55.88;99304.84;5078389;28;20035;-52
2022/05/23 20:00:28;;;;;;;1.30;0.30;;;;;;;14.33;55.64;99302.31;5078283;28;20062;-55
2022/05/23 20:08:29;;;;;;;0.98;0.30;;;;;;;14.05;56.03;99297.81;5084132;28;20024;-55
2022/05/23 20:10:55;;;;;;;3.13;0.50;;;;;;;14.03;55.98;99308.03;5097385;28;20483;-55
2022/05/23 20:13:22;;;;;;;0.32;0.30;;;;;;;13.96;55.98;99296.59;5076234;28;20024;-54
2022/05/23 20:15:47;;;;;;;0.32;0.32;;;;;;;13.91;56.25;99294.63;5094418;28;20119;-55
2022/05/23 20:18:17;;;;;;;0.57;0.40;;;;;;;13.85;56.76;99303.69;5093975;28;20071;-53
2022/05/23 20:20:45;;;;;;;0.30;0.30;;;;;;;13.79;56.60;99298.47;5094058;28;20092;-52
2022/05/23 20:23:13;;;;;;;0.82;0.40;;;;;;;13.73;57.05;99313.75;5080088;28;20120;-55
2022/05/23 20:25:41;;;;;;;0.98;0.30;;;;;;;13.68;56.74;99306.38;5074525;28;20020;-53
2022/05/23 20:28:08;;;;;;;0.77;0.40;;;;;;;13.63;57.37;99306.28;5055834;28;20495;-51
2022/05/23 20:30:37;;;;;;;3.50;0.30;;;;;;;13.62;57.33;99311.94;5056475;28;20037;-54
2022/05/23 20:33:05;;;;;;;0.30;0.22;;;;;;;13.57;57.48;99318.03;5055802;28;20031;-50
2022/05/23 20:35:31;;;;;;;1.15;0.60;;;;;;;13.58;57.43;99322.38;5060696;28;20033;-54
2022/05/23 20:37:57;;;;;;;0.55;0.30;;;;;;;13.54;57.78;99316.66;5061483;28;20403;-52
2022/05/23 20:40:23;;;;;;;1.35;0.50;;;;;;;13.53;58.08;99316.88;5078575;28;20032;-50
2022/05/23 20:42:50;;;;;;;0.43;0.32;;;;;;;13.51;57.60;99317.13;5059772;28;20107;-50
2022/05/23 20:45:16;;;;;;;0.50;0.50;;;;;;;13.50;57.98;99320.06;5060384;28;20389;-55
2022/05/23 20:47:43;;;;;;;0.70;0.50;;;;;;;13.43;58.22;99303.19;5060400;28;20122;-51
2022/05/23 20:50:17;;;;;;;0.80;0.57;;;;;;;13.57;58.33;99328.81;5078596;28;20034;-54
2022/05/23 20:52:43;;;;;;;0.90;0.57;;;;;;;13.50;58.88;99323.59;5078131;28;20025;-50
2022/05/23 20:55:10;;;;;;;0.50;0.50;;;;;;;13.52;58.14;99334.13;5059905;28;20025;-52
2022/05/23 20:57:37;;;;;;;1.35;0.45;;;;;;;13.50;58.63;99331.69;5043176;28;20029;-54
2022/05/23 21:00:07;;;;;;;1.00;0.45;;;;;;;13.50;58.28;99331.69;5059160;28;20119;-53
2022/05/23 21:02:34;;;;;;;3.28;0.50;;;;;;;13.52;58.80;99331.41;5076866;28;20037;-52
2022/05/23 21:04:59;;;;;;;0.55;0.32;;;;;;;13.53;58.77;99330.38;5077339;28;20528;-50
2022/05/23 21:07:25;;;;;;;0.38;0.28;;;;;;;13.51;59.18;99330.59;5076982;28;20108;-54
2022/05/23 21:09:51;;;;;;;0.65;0.40;;;;;;;13.53;59.08;99324.97;5077170;28;20107;-49
2022/05/23 21:12:18;;;;;;;0.80;0.52;;;;;;;13.49;59.29;99318.44;5058964;28;20033;-53
2022/05/23 21:14:45;;;;;;;2.42;0.77;;;;;;;13.55;59.61;99330.94;5076704;28;20067;-54
2022/05/23 21:17:15;;;;;;;3.72;0.60;;;;;;;13.54;59.91;99329.31;5076726;28;20033;-53
2022/05/23 21:19:43;;;;;;;1.17;0.70;;;;;;;13.51;60.10;99332.50;5058867;28;20087;-51
2022/05/23 21:22:13;;;;;;;0.60;0.52;;;;;;;13.42;60.33;99321.25;5063639;28;20434;-49
2022/05/23 21:24:40;;;;;;;2.15;0.43;;;;;;;13.41;61.23;99329.59;5097719;28;20058;-50
2022/05/23 21:27:06;;;;;;;1.83;1.00;;;;;;;13.39;61.10;99329.00;5061589;28;20035;-50
2022/05/23 21:29:32;;;;;;;0.60;0.60;;;;;;;13.34;60.93;99324.34;5096606;28;20380;-53
2022/05/23 21:31:59;;;;;;;0.85;0.40;;;;;;;13.31;61.69;99324.81;5096569;28;20348;-51
2022/05/23 21:34:25;;;;;;;0.45;0.45;;;;;;;13.26;61.58;99324.69;5097029;28;20364;-53
2022/05/23 21:36:51;;;;;;;1.30;0.60;;;;;;;13.25;62.14;99320.38;5078442;28;20032;-51
2022/05/23 21:39:17;;;;;;;1.00;0.50;;;;;;;13.22;62.09;99318.94;5096694;28;20032;-50
2022/05/23 21:47:36;;;;;;;0.60;0.30;;;;;;;13.06;61.94;99331.31;5082615;28;20506;-52
2022/05/23 21:50:03;;;;;;;0.20;0.20;;;;;;;13.03;63.88;99322.88;5078404;28;20032;-51
2022/05/23 21:52:29;;;;;;;1.00;0.90;;;;;;;12.92;63.61;99317.25;5077900;28;20028;-51
2022/05/23 21:54:55;;;;;;;1.13;0.80;;;;;;;12.93;63.91;99324.31;5079239;28;20028;-54
2022/05/23 21:57:21;;;;;;;1.00;0.88;;;;;;;12.85;63.99;99327.38;5096701;28;20032;-50
2022/05/23 21:59:48;;;;;;;0.68;0.68;;;;;;;12.83;64.23;99325.97;5096675;28;20107;-51
2022/05/23 22:02:19;;;;;;;0.47;0.40;;;;;;;12.80;64.52;99332.66;5096233;28;20032;-54
2022/05/23 22:04:45;;;;;;;2.10;0.60;;;;;;;12.73;64.75;99332.75;5096444;28;20047;-50
2022/05/23 22:07:11;;;;;;;1.00;0.70;;;;;;;12.63;65.09;99313.69;5061488;28;20468;-53
2022/05/23 22:09:37;;;;;;;4.80;0.50;;;;;;;12.69;65.34;99330.78;5078248;28;20121;-55
2022/05/23 22:12:05;;;;;;;0.80;0.70;;;;;;;12.64;65.65;99341.44;5096197;28;20064;-53
2022/05/23 22:14:31;;;;;;;0.75;0.60;;;;;;;12.61;65.72;99344.59;5078675;28;20104;-50
2022/05/23 22:16:57;;;;;;;2.10;0.70;;;;;;;12.59;65.76;99345.66;5096587;28;20036;-53
2022/05/23 22:19:27;;;;;;;1.85;0.63;;;;;;;12.56;65.68;99343.44;5096646;28;20032;-52
2022/05/23 22:21:54;;;;;;;2.13;0.68;;;;;;;12.53;66.30;99351.16;5058721;28;20068;-52
2022/05/23 22:24:21;;;;;;;1.90;1.13;;;;;;;12.37;66.13;99333.84;5057716;28;20029;-49
2022/05/23 22:26:48;;;;;;;2.45;1.10;;;;;;;12.43;65.63;99340.16;5057618;28;20058;-52
2022/05/23 22:29:15;;;;;;;0.77;0.77;;;;;;;12.35;65.78;99336.75;5058826;28;20029;-51
2022/05/23 22:31:40;;;;;;;2.30;0.70;;;;;;;12.36;66.00;99338.38;5079243;28;20028;-52
2022/05/23 22:34:06;;;;;;;1.10;0.88;;;;;;;12.32;66.57;99345.28;5077641;28;20123;-54
2022/05/23 22:36:33;;;;;;;2.35;0.80;;;;;;;12.26;67.00;99343.53;5076829;28;20028;-50
2022/05/23 22:38:59;;;;;;;1.27;1.15;;;;;;;12.22;67.11;99333.44;5058810;28;20103;-50
2022/05/23 22:41:24;;;;;;;2.05;1.00;;;;;;;12.31;67.12;99349.06;5077195;28;20056;-54
2022/05/23 22:43:50;;;;;;;0.98;0.98;;;;;;;12.20;67.61;99336.38;5076776;28;20025;-50
2022/05/23 22:46:16;;;;;;;2.90;1.20;;;;;;;12.24;67.02;99345.66;5058137;28;20036;-51
2022/05/23 22:48:42;;;;;;;4.10;1.02;;;;;;;12.29;67.72;99348.44;5057761;28;20021;-51
2022/05/23 22:51:08;;;;;;;1.88;1.02;;;;;;;12.30;67.87;99351.97;5075839;28;20036;-55
2022/05/23 22:53:35;;;;;;;1.60;1.48;;;;;;;12.23;67.77;99352.06;5060089;28;20032;-54
2022/05/23 22:56:04;;;;;;;2.80;1.50;;;;;;;12.24;68.53;99359.09;5075447;28;20099;-52
2022/05/23 22:58:31;;;;;;;2.13;1.33;;;;;;;12.23;68.69;99356.63;5076218;28;20032;-51
2022/05/23 23:00:58;;;;;;;2.00;1.20;;;;;;;12.22;68.55;99361.22;5040618;28;20099;-51
2022/05/23 23:06:12;;;;;;;1.92;1.20;;;;;;;12.18;69.38;99360.84;5060937;28;20383;-51
2022/05/23 23:08:38;;;;;;;1.35;1.25;;;;;;;12.15;69.32;99358.63;5075031;28;20477;-55
2022/05/23 23:11:04;;;;;;;1.42;1.10;;;;;;;12.03;69.49;99347.00;5056840;28;20104;-55
2022/05/23 23:13:30;;;;;;;1.20;1.10;;;;;;;12.11;69.53;99360.13;5076006;28;20048;-54
2022/05/23 23:15:56;;;;;;;1.33;1.10;;;;;;;12.02;69.88;99348.06;5057594;28;20028;-54
2022/05/23 23:18:22;;;;;;;1.52;1.08;;;;;;;12.07;69.93;99364.34;5075438;28;20020;-52
2022/05/23 23:20:48;;;;;;;1.15;1.00;;;;;;;11.89;70.25;99346.34;5074933;28;20433;-51
2022/05/23 23:23:14;;;;;;;1.20;1.10;;;;;;;11.96;69.92;99365.09;5074190;28;20064;-50
2022/05/23 23:25:40;;;;;;;1.40;1.30;;;;;;;11.81;70.61;99347.50;5074774;28;20036;-52
2022/05/23 23:28:06;;;;;;;2.63;1.90;;;;;;;11.87;70.52;99356.53;5057984;28;20020;-55
2022/05/23 23:30:32;;;;;;;2.13;1.63;;;;;;;11.81;70.63;99350.19;5076739;28;20030;-51
2022/05/23 23:38:29;;;;;;;1.42;1.00;;;;;;;11.81;71.59;99370.88;5061496;28;20029;-52
2022/05/23 23:40:55;;;;;;;1.00;0.80;;;;;;;11.78;71.44;99374.84;5076032;28;20408;-52
2022/05/23 23:43:23;;;;;;;1.00;0.88;;;;;;;11.74;71.84;99371.00;5074881;28;20082;-54
2022/05/23 23:45:50;;;;;;;1.08;1.02;;;;;;;11.72;72.14;99367.72;5040278;28;20029;-54
2022/05/23 23:48:16;;;;;;;1.17;1.08;;;;;;;11.72;72.35;99366.88;5074637;28;20090;-55
2022/05/23 23:50:42;;;;;;;1.40;1.20;;;;;;;11.65;72.63;99372.34;5074772;28;20067;-54
2022/05/23 23:53:09;;;;;;;1.25;1.00;;;;;;;11.59;73.20;99371.41;5073912;28;20082;-51
2022/05/23 23:55:35;;;;;;;1.55;1.02;;;;;;;11.58;72.97;99361.69;5055622;28;20445;-54
2022/05/23 23:58:02;;;;;;;0.85;0.70;;;;;;;11.53;73.30;99358.84;5073505;28;20395;-53
